sensor_id;sensor_type;location;lat;lon;timestamp;P1;durP1;ratioP1;P2;durP2;ratioP2
28844;SDS011;15976;47.938;7.758;2023-07-29T00:00:48;1.48;;;1.15;;
28844;SDS011;15976;47.938;7.758;2023-07-29T00:03:15;2.35;;;1.30;;
28844;SDS011;15976;47.938;7.758;2023-07-29T00:05:42;3.13;;;1.40;;
28844;SDS011;15976;47.938;7.758;2023-07-29T00:08:10;2.15;;;1.20;;
28844;SDS011;15976;47.938;7.758;2023-07-29T00:10:37;2.75;;;1.50;;
28844;SDS011;15976;47.938;7.758;2023-07-29T00:13:05;3.03;;;1.48;;
28844;SDS011;15976;47.938;7.758;2023-07-29T00:15:32;2.97;;;1.60;;
28844;SDS011;15976;47.938;7.758;2023-07-29T00:18:02;3.70;;;1.55;;
28844;SDS011;15976;47.938;7.758;2023-07-29T00:20:30;2.00;;;1.48;;
28844;SDS011;15976;47.938;7.758;2023-07-29T00:22:57;1.88;;;1.20;;
28844;SDS011;15976;47.938;7.758;2023-07-29T00:25:24;4.75;;;1.30;;
28844;SDS011;15976;47.938;7.758;2023-07-29T00:27:51;1.98;;;1.13;;
28844;SDS011;15976;47.938;7.758;2023-07-29T00:30:24;3.03;;;1.10;;
28844;SDS011;15976;47.938;7.758;2023-07-29T00:32:51;4.32;;;1.35;;
28844;SDS011;15976;47.938;7.758;2023-07-29T00:35:18;2.90;;;1.10;;
28844;SDS011;15976;47.938;7.758;2023-07-29T00:37:48;2.38;;;1.10;;
28844;SDS011;15976;47.938;7.758;2023-07-29T00:40:17;4.20;;;1.23;;
28844;SDS011;15976;47.938;7.758;2023-07-29T00:42:47;1.90;;;1.20;;
28844;SDS011;15976;47.938;7.758;2023-07-29T00:45:15;2.65;;;1.30;;
28844;SDS011;15976;47.938;7.758;2023-07-29T00:47:43;1.65;;;1.10;;
28844;SDS011;15976;47.938;7.758;2023-07-29T00:50:11;2.75;;;1.15;;
28844;SDS011;15976;47.938;7.758;2023-07-29T00:52:40;4.40;;;1.80;;
28844;SDS011;15976;47.938;7.758;2023-07-29T00:55:08;2.72;;;1.40;;
28844;SDS011;15976;47.938;7.758;2023-07-29T00:57:36;1.85;;;1.30;;
28844;SDS011;15976;47.938;7.758;2023-07-29T01:00:03;2.20;;;1.33;;
28844;SDS011;15976;47.938;7.758;2023-07-29T01:02:31;2.05;;;1.23;;
28844;SDS011;15976;47.938;7.758;2023-07-29T01:04:59;2.75;;;1.20;;
28844;SDS011;15976;47.938;7.758;2023-07-29T01:10:17;4.72;;;1.60;;
28844;SDS011;15976;47.938;7.758;2023-07-29T01:18:26;5.43;;;1.55;;
28844;SDS011;15976;47.938;7.758;2023-07-29T01:20:58;2.88;;;1.55;;
28844;SDS011;15976;47.938;7.758;2023-07-29T01:23:30;2.42;;;1.45;;
28844;SDS011;15976;47.938;7.758;2023-07-29T01:25:58;3.63;;;1.40;;
28844;SDS011;15976;47.938;7.758;2023-07-29T01:28:25;1.95;;;1.60;;
28844;SDS011;15976;47.938;7.758;2023-07-29T01:30:58;3.80;;;1.73;;
28844;SDS011;15976;47.938;7.758;2023-07-29T01:33:42;2.85;;;1.50;;
28844;SDS011;15976;47.938;7.758;2023-07-29T01:36:21;2.83;;;1.42;;
28844;SDS011;15976;47.938;7.758;2023-07-29T01:38:53;4.00;;;1.40;;
28844;SDS011;15976;47.938;7.758;2023-07-29T01:41:25;2.05;;;1.42;;
28844;SDS011;15976;47.938;7.758;2023-07-29T01:43:55;2.70;;;1.60;;
28844;SDS011;15976;47.938;7.758;2023-07-29T01:46:22;3.30;;;1.38;;
28844;SDS011;15976;47.938;7.758;2023-07-29T01:48:49;1.50;;;1.23;;
28844;SDS011;15976;47.938;7.758;2023-07-29T01:51:19;1.85;;;1.40;;
28844;SDS011;15976;47.938;7.758;2023-07-29T01:53:47;2.95;;;1.73;;
28844;SDS011;15976;47.938;7.758;2023-07-29T01:56:15;2.40;;;1.77;;
28844;SDS011;15976;47.938;7.758;2023-07-29T01:58:50;3.33;;;1.75;;
28844;SDS011;15976;47.938;7.758;2023-07-29T02:01:20;4.30;;;1.67;;
28844;SDS011;15976;47.938;7.758;2023-07-29T02:03:48;4.22;;;2.03;;
28844;SDS011;15976;47.938;7.758;2023-07-29T02:06:21;4.13;;;1.67;;
28844;SDS011;15976;47.938;7.758;2023-07-29T02:08:48;8.00;;;1.83;;
28844;SDS011;15976;47.938;7.758;2023-07-29T02:11:15;3.42;;;1.63;;
28844;SDS011;15976;47.938;7.758;2023-07-29T02:13:46;2.70;;;1.55;;
28844;SDS011;15976;47.938;7.758;2023-07-29T02:16:14;3.03;;;1.70;;
28844;SDS011;15976;47.938;7.758;2023-07-29T02:18:42;1.80;;;1.52;;
28844;SDS011;15976;47.938;7.758;2023-07-29T02:21:09;2.05;;;1.50;;
28844;SDS011;15976;47.938;7.758;2023-07-29T02:23:36;3.08;;;1.33;;
28844;SDS011;15976;47.938;7.758;2023-07-29T02:26:03;4.22;;;1.70;;
28844;SDS011;15976;47.938;7.758;2023-07-29T02:28:30;2.28;;;1.52;;
28844;SDS011;15976;47.938;7.758;2023-07-29T02:31:13;2.35;;;1.60;;
28844;SDS011;15976;47.938;7.758;2023-07-29T02:33:40;4.03;;;1.70;;
28844;SDS011;15976;47.938;7.758;2023-07-29T02:36:08;1.58;;;1.45;;
28844;SDS011;15976;47.938;7.758;2023-07-29T02:38:36;2.35;;;1.50;;
28844;SDS011;15976;47.938;7.758;2023-07-29T02:41:03;3.13;;;1.52;;
28844;SDS011;15976;47.938;7.758;2023-07-29T02:43:31;4.50;;;1.80;;
28844;SDS011;15976;47.938;7.758;2023-07-29T02:45:59;4.15;;;1.80;;
28844;SDS011;15976;47.938;7.758;2023-07-29T02:48:29;3.42;;;1.80;;
28844;SDS011;15976;47.938;7.758;2023-07-29T02:50:57;1.95;;;1.55;;
28844;SDS011;15976;47.938;7.758;2023-07-29T02:53:24;2.17;;;1.60;;
28844;SDS011;15976;47.938;7.758;2023-07-29T02:55:51;3.17;;;1.85;;
28844;SDS011;15976;47.938;7.758;2023-07-29T02:58:19;4.05;;;1.95;;
28844;SDS011;15976;47.938;7.758;2023-07-29T03:00:46;2.97;;;1.58;;
28844;SDS011;15976;47.938;7.758;2023-07-29T03:03:16;4.25;;;1.63;;
28844;SDS011;15976;47.938;7.758;2023-07-29T03:05:44;2.75;;;1.77;;
28844;SDS011;15976;47.938;7.758;2023-07-29T03:08:11;3.35;;;1.50;;
28844;SDS011;15976;47.938;7.758;2023-07-29T03:10:39;3.30;;;2.00;;
28844;SDS011;15976;47.938;7.758;2023-07-29T03:13:08;4.18;;;3.13;;
28844;SDS011;15976;47.938;7.758;2023-07-29T03:15:35;2.78;;;2.47;;
28844;SDS011;15976;47.938;7.758;2023-07-29T03:18:03;4.45;;;2.20;;
28844;SDS011;15976;47.938;7.758;2023-07-29T03:20:30;4.30;;;2.20;;
28844;SDS011;15976;47.938;7.758;2023-07-29T03:22:57;2.38;;;1.77;;
28844;SDS011;15976;47.938;7.758;2023-07-29T03:25:24;3.10;;;1.83;;
28844;SDS011;15976;47.938;7.758;2023-07-29T03:27:51;2.35;;;1.95;;
28844;SDS011;15976;47.938;7.758;2023-07-29T03:30:19;5.03;;;2.28;;
28844;SDS011;15976;47.938;7.758;2023-07-29T03:32:49;4.47;;;2.03;;
28844;SDS011;15976;47.938;7.758;2023-07-29T03:35:16;3.70;;;2.08;;
28844;SDS011;15976;47.938;7.758;2023-07-29T03:37:43;4.28;;;2.22;;
28844;SDS011;15976;47.938;7.758;2023-07-29T03:40:10;3.30;;;2.05;;
28844;SDS011;15976;47.938;7.758;2023-07-29T03:42:37;2.90;;;2.20;;
28844;SDS011;15976;47.938;7.758;2023-07-29T03:45:04;2.10;;;1.90;;
28844;SDS011;15976;47.938;7.758;2023-07-29T03:47:32;4.70;;;2.60;;
28844;SDS011;15976;47.938;7.758;2023-07-29T03:49:59;3.75;;;2.25;;
28844;SDS011;15976;47.938;7.758;2023-07-29T03:52:26;3.13;;;2.33;;
28844;SDS011;15976;47.938;7.758;2023-07-29T03:54:53;3.97;;;2.33;;
28844;SDS011;15976;47.938;7.758;2023-07-29T03:57:20;3.20;;;2.10;;
28844;SDS011;15976;47.938;7.758;2023-07-29T03:59:48;5.03;;;2.22;;
28844;SDS011;15976;47.938;7.758;2023-07-29T04:02:15;5.57;;;2.08;;
28844;SDS011;15976;47.938;7.758;2023-07-29T04:04:42;3.10;;;1.77;;
28844;SDS011;15976;47.938;7.758;2023-07-29T04:07:14;5.53;;;2.20;;
28844;SDS011;15976;47.938;7.758;2023-07-29T04:09:41;3.00;;;2.05;;
28844;SDS011;15976;47.938;7.758;2023-07-29T04:12:10;5.90;;;2.05;;
28844;SDS011;15976;47.938;7.758;2023-07-29T04:14:37;2.03;;;1.73;;
28844;SDS011;15976;47.938;7.758;2023-07-29T04:17:04;2.60;;;2.05;;
28844;SDS011;15976;47.938;7.758;2023-07-29T04:19:31;2.70;;;2.03;;
28844;SDS011;15976;47.938;7.758;2023-07-29T04:21:59;3.45;;;2.15;;
28844;SDS011;15976;47.938;7.758;2023-07-29T04:24:26;3.70;;;2.20;;
28844;SDS011;15976;47.938;7.758;2023-07-29T04:26:53;3.92;;;1.98;;
28844;SDS011;15976;47.938;7.758;2023-07-29T04:29:20;2.72;;;2.20;;
28844;SDS011;15976;47.938;7.758;2023-07-29T04:31:49;3.17;;;2.30;;
28844;SDS011;15976;47.938;7.758;2023-07-29T04:34:17;5.25;;;2.10;;
28844;SDS011;15976;47.938;7.758;2023-07-29T04:36:45;3.13;;;2.50;;
28844;SDS011;15976;47.938;7.758;2023-07-29T04:39:14;2.67;;;2.30;;
28844;SDS011;15976;47.938;7.758;2023-07-29T04:41:41;2.75;;;2.15;;
28844;SDS011;15976;47.938;7.758;2023-07-29T04:44:08;3.00;;;2.10;;
28844;SDS011;15976;47.938;7.758;2023-07-29T04:46:36;3.65;;;2.22;;
28844;SDS011;15976;47.938;7.758;2023-07-29T04:49:03;3.58;;;2.30;;
28844;SDS011;15976;47.938;7.758;2023-07-29T04:51:30;2.85;;;2.10;;
28844;SDS011;15976;47.938;7.758;2023-07-29T04:54:00;2.38;;;2.05;;
28844;SDS011;15976;47.938;7.758;2023-07-29T04:56:27;2.53;;;1.90;;
28844;SDS011;15976;47.938;7.758;2023-07-29T04:58:54;4.93;;;2.45;;
28844;SDS011;15976;47.938;7.758;2023-07-29T05:01:22;3.60;;;2.17;;
28844;SDS011;15976;47.938;7.758;2023-07-29T05:03:51;4.03;;;2.25;;
28844;SDS011;15976;47.938;7.758;2023-07-29T05:06:18;5.05;;;2.42;;
28844;SDS011;15976;47.938;7.758;2023-07-29T05:08:45;3.50;;;2.38;;
28844;SDS011;15976;47.938;7.758;2023-07-29T05:11:13;3.70;;;2.50;;
28844;SDS011;15976;47.938;7.758;2023-07-29T05:13:40;2.60;;;2.20;;
28844;SDS011;15976;47.938;7.758;2023-07-29T05:16:09;6.80;;;2.50;;
28844;SDS011;15976;47.938;7.758;2023-07-29T05:18:36;2.53;;;2.30;;
28844;SDS011;15976;47.938;7.758;2023-07-29T05:21:03;5.72;;;2.72;;
28844;SDS011;15976;47.938;7.758;2023-07-29T05:23:34;3.10;;;2.47;;
28844;SDS011;15976;47.938;7.758;2023-07-29T05:26:01;2.38;;;2.08;;
28844;SDS011;15976;47.938;7.758;2023-07-29T05:28:28;3.72;;;2.17;;
28844;SDS011;15976;47.938;7.758;2023-07-29T05:30:55;2.30;;;2.08;;
28844;SDS011;15976;47.938;7.758;2023-07-29T05:33:22;5.35;;;2.60;;
28844;SDS011;15976;47.938;7.758;2023-07-29T05:35:49;2.88;;;2.50;;
28844;SDS011;15976;47.938;7.758;2023-07-29T05:38:17;5.93;;;2.53;;
28844;SDS011;15976;47.938;7.758;2023-07-29T05:40:44;2.72;;;2.30;;
28844;SDS011;15976;47.938;7.758;2023-07-29T05:43:11;2.75;;;2.25;;
28844;SDS011;15976;47.938;7.758;2023-07-29T05:45:39;2.88;;;2.00;;
28844;SDS011;15976;47.938;7.758;2023-07-29T05:48:06;2.22;;;1.73;;
28844;SDS011;15976;47.938;7.758;2023-07-29T05:50:33;2.63;;;2.10;;
28844;SDS011;15976;47.938;7.758;2023-07-29T05:53:00;2.63;;;2.20;;
28844;SDS011;15976;47.938;7.758;2023-07-29T05:55:27;2.30;;;2.10;;
28844;SDS011;15976;47.938;7.758;2023-07-29T05:57:54;3.45;;;2.20;;
28844;SDS011;15976;47.938;7.758;2023-07-29T06:00:22;3.28;;;2.13;;
28844;SDS011;15976;47.938;7.758;2023-07-29T06:02:49;3.75;;;2.10;;
28844;SDS011;15976;47.938;7.758;2023-07-29T06:05:20;2.15;;;1.95;;
28844;SDS011;15976;47.938;7.758;2023-07-29T06:07:47;3.55;;;2.38;;
28844;SDS011;15976;47.938;7.758;2023-07-29T06:10:15;4.90;;;2.15;;
28844;SDS011;15976;47.938;7.758;2023-07-29T06:12:45;6.57;;;2.22;;
28844;SDS011;15976;47.938;7.758;2023-07-29T06:15:13;3.88;;;2.33;;
28844;SDS011;15976;47.938;7.758;2023-07-29T06:17:40;4.05;;;2.20;;
28844;SDS011;15976;47.938;7.758;2023-07-29T06:20:08;2.75;;;2.17;;
28844;SDS011;15976;47.938;7.758;2023-07-29T06:22:35;2.47;;;2.20;;
28844;SDS011;15976;47.938;7.758;2023-07-29T06:25:03;3.22;;;2.10;;
28844;SDS011;15976;47.938;7.758;2023-07-29T06:27:30;2.33;;;2.03;;
28844;SDS011;15976;47.938;7.758;2023-07-29T06:30:00;3.25;;;2.35;;
28844;SDS011;15976;47.938;7.758;2023-07-29T06:32:27;3.53;;;2.40;;
28844;SDS011;15976;47.938;7.758;2023-07-29T06:34:54;2.75;;;2.20;;
28844;SDS011;15976;47.938;7.758;2023-07-29T06:37:21;3.58;;;2.78;;
28844;SDS011;15976;47.938;7.758;2023-07-29T06:39:49;2.58;;;2.38;;
28844;SDS011;15976;47.938;7.758;2023-07-29T06:42:16;3.15;;;2.28;;
28844;SDS011;15976;47.938;7.758;2023-07-29T06:44:43;2.35;;;2.15;;
28844;SDS011;15976;47.938;7.758;2023-07-29T06:47:12;4.50;;;2.60;;
28844;SDS011;15976;47.938;7.758;2023-07-29T06:49:39;5.70;;;2.30;;
28844;SDS011;15976;47.938;7.758;2023-07-29T06:52:06;2.72;;;2.22;;
28844;SDS011;15976;47.938;7.758;2023-07-29T06:54:33;4.05;;;2.38;;
28844;SDS011;15976;47.938;7.758;2023-07-29T06:57:00;5.30;;;2.35;;
28844;SDS011;15976;47.938;7.758;2023-07-29T06:59:30;3.80;;;2.42;;
28844;SDS011;15976;47.938;7.758;2023-07-29T07:01:57;4.35;;;2.60;;
28844;SDS011;15976;47.938;7.758;2023-07-29T07:04:24;3.58;;;2.30;;
28844;SDS011;15976;47.938;7.758;2023-07-29T07:06:51;5.00;;;2.78;;
28844;SDS011;15976;47.938;7.758;2023-07-29T07:09:18;5.10;;;2.67;;
28844;SDS011;15976;47.938;7.758;2023-07-29T07:11:46;5.00;;;2.85;;
28844;SDS011;15976;47.938;7.758;2023-07-29T07:14:12;6.65;;;2.47;;
28844;SDS011;15976;47.938;7.758;2023-07-29T07:16:40;3.58;;;2.70;;
28844;SDS011;15976;47.938;7.758;2023-07-29T07:19:07;3.20;;;2.60;;
28844;SDS011;15976;47.938;7.758;2023-07-29T07:21:34;3.72;;;2.70;;
28844;SDS011;15976;47.938;7.758;2023-07-29T07:24:01;4.80;;;2.63;;
28844;SDS011;15976;47.938;7.758;2023-07-29T07:26:28;3.17;;;2.58;;
28844;SDS011;15976;47.938;7.758;2023-07-29T07:28:55;2.95;;;2.55;;
28844;SDS011;15976;47.938;7.758;2023-07-29T07:31:23;5.30;;;2.60;;
28844;SDS011;15976;47.938;7.758;2023-07-29T07:33:50;3.50;;;2.30;;
28844;SDS011;15976;47.938;7.758;2023-07-29T07:36:17;3.33;;;2.38;;
28844;SDS011;15976;47.938;7.758;2023-07-29T07:38:44;3.05;;;2.35;;
28844;SDS011;15976;47.938;7.758;2023-07-29T07:41:12;4.28;;;2.35;;
28844;SDS011;15976;47.938;7.758;2023-07-29T07:43:40;3.03;;;2.17;;
28844;SDS011;15976;47.938;7.758;2023-07-29T07:46:07;2.60;;;2.10;;
28844;SDS011;15976;47.938;7.758;2023-07-29T07:48:38;3.00;;;2.25;;
28844;SDS011;15976;47.938;7.758;2023-07-29T07:51:11;2.60;;;2.20;;
28844;SDS011;15976;47.938;7.758;2023-07-29T07:53:39;5.40;;;2.40;;
28844;SDS011;15976;47.938;7.758;2023-07-29T07:56:06;2.55;;;2.20;;
28844;SDS011;15976;47.938;7.758;2023-07-29T07:58:34;3.60;;;2.35;;
28844;SDS011;15976;47.938;7.758;2023-07-29T08:01:03;2.58;;;2.05;;
28844;SDS011;15976;47.938;7.758;2023-07-29T08:03:34;3.08;;;2.20;;
28844;SDS011;15976;47.938;7.758;2023-07-29T08:06:02;2.53;;;2.08;;
28844;SDS011;15976;47.938;7.758;2023-07-29T08:08:43;2.70;;;2.15;;
28844;SDS011;15976;47.938;7.758;2023-07-29T08:11:11;2.97;;;2.58;;
28844;SDS011;15976;47.938;7.758;2023-07-29T08:13:38;3.75;;;2.25;;
28844;SDS011;15976;47.938;7.758;2023-07-29T08:16:05;2.72;;;2.28;;
28844;SDS011;15976;47.938;7.758;2023-07-29T08:18:33;2.13;;;1.95;;
28844;SDS011;15976;47.938;7.758;2023-07-29T08:21:02;3.03;;;2.30;;
28844;SDS011;15976;47.938;7.758;2023-07-29T08:23:38;2.55;;;2.03;;
28844;SDS011;15976;47.938;7.758;2023-07-29T08:26:07;4.45;;;2.58;;
28844;SDS011;15976;47.938;7.758;2023-07-29T08:28:48;3.00;;;2.25;;
28844;SDS011;15976;47.938;7.758;2023-07-29T08:31:21;3.35;;;2.20;;
28844;SDS011;15976;47.938;7.758;2023-07-29T08:33:55;2.78;;;2.45;;
28844;SDS011;15976;47.938;7.758;2023-07-29T08:36:22;3.15;;;2.53;;
28844;SDS011;15976;47.938;7.758;2023-07-29T08:38:56;3.03;;;2.70;;
28844;SDS011;15976;47.938;7.758;2023-07-29T08:41:29;8.20;;;3.75;;
28844;SDS011;15976;47.938;7.758;2023-07-29T08:47:15;2.67;;;2.25;;
28844;SDS011;15976;47.938;7.758;2023-07-29T08:49:43;3.85;;;2.13;;
28844;SDS011;15976;47.938;7.758;2023-07-29T08:52:13;2.30;;;2.10;;
28844;SDS011;15976;47.938;7.758;2023-07-29T08:54:41;3.85;;;2.30;;
28844;SDS011;15976;47.938;7.758;2023-07-29T08:57:09;3.85;;;2.40;;
28844;SDS011;15976;47.938;7.758;2023-07-29T08:59:37;3.63;;;2.50;;
28844;SDS011;15976;47.938;7.758;2023-07-29T09:02:05;3.55;;;2.55;;
28844;SDS011;15976;47.938;7.758;2023-07-29T09:04:35;3.40;;;2.38;;
28844;SDS011;15976;47.938;7.758;2023-07-29T09:09:52;3.58;;;2.30;;
28844;SDS011;15976;47.938;7.758;2023-07-29T09:12:37;3.50;;;2.58;;
28844;SDS011;15976;47.938;7.758;2023-07-29T09:15:06;2.78;;;2.30;;
28844;SDS011;15976;47.938;7.758;2023-07-29T09:17:37;4.32;;;2.30;;
28844;SDS011;15976;47.938;7.758;2023-07-29T09:20:10;3.60;;;2.45;;
28844;SDS011;15976;47.938;7.758;2023-07-29T09:22:37;3.28;;;2.40;;
28844;SDS011;15976;47.938;7.758;2023-07-29T09:25:05;3.03;;;2.35;;
28844;SDS011;15976;47.938;7.758;2023-07-29T09:27:41;3.55;;;2.42;;
28844;SDS011;15976;47.938;7.758;2023-07-29T09:30:15;5.75;;;2.42;;
28844;SDS011;15976;47.938;7.758;2023-07-29T09:33:17;2.55;;;2.25;;
28844;SDS011;15976;47.938;7.758;2023-07-29T09:35:38;3.97;;;2.30;;
28844;SDS011;15976;47.938;7.758;2023-07-29T09:38:15;2.42;;;2.17;;
28844;SDS011;15976;47.938;7.758;2023-07-29T09:40:43;4.53;;;2.50;;
28844;SDS011;15976;47.938;7.758;2023-07-29T09:43:11;3.42;;;2.60;;
28844;SDS011;15976;47.938;7.758;2023-07-29T09:45:39;3.95;;;2.65;;
28844;SDS011;15976;47.938;7.758;2023-07-29T09:48:09;3.25;;;2.60;;
28844;SDS011;15976;47.938;7.758;2023-07-29T09:50:37;2.93;;;2.67;;
28844;SDS011;15976;47.938;7.758;2023-07-29T09:53:05;4.15;;;2.78;;
28844;SDS011;15976;47.938;7.758;2023-07-29T09:59:37;4.50;;;2.65;;
28844;SDS011;15976;47.938;7.758;2023-07-29T10:02:10;3.85;;;2.65;;
28844;SDS011;15976;47.938;7.758;2023-07-29T10:04:44;2.92;;;2.50;;
28844;SDS011;15976;47.938;7.758;2023-07-29T10:07:22;2.80;;;2.25;;
28844;SDS011;15976;47.938;7.758;2023-07-29T10:09:51;6.10;;;3.28;;
28844;SDS011;15976;47.938;7.758;2023-07-29T10:33:09;3.33;;;2.40;;
28844;SDS011;15976;47.938;7.758;2023-07-29T10:36:01;2.83;;;2.45;;
28844;SDS011;15976;47.938;7.758;2023-07-29T10:38:32;2.78;;;2.30;;
28844;SDS011;15976;47.938;7.758;2023-07-29T10:41:01;2.80;;;2.30;;
28844;SDS011;15976;47.938;7.758;2023-07-29T10:46:18;3.45;;;2.50;;
28844;SDS011;15976;47.938;7.758;2023-07-29T10:51:23;2.85;;;2.42;;
28844;SDS011;15976;47.938;7.758;2023-07-29T10:54:02;5.63;;;2.15;;
28844;SDS011;15976;47.938;7.758;2023-07-29T10:56:40;3.17;;;2.03;;
28844;SDS011;15976;47.938;7.758;2023-07-29T11:02:32;2.55;;;1.98;;
28844;SDS011;15976;47.938;7.758;2023-07-29T11:05:07;5.15;;;2.00;;
28844;SDS011;15976;47.938;7.758;2023-07-29T11:07:47;2.42;;;1.90;;
28844;SDS011;15976;47.938;7.758;2023-07-29T11:10:17;4.50;;;2.15;;
28844;SDS011;15976;47.938;7.758;2023-07-29T11:12:50;3.03;;;2.25;;
28844;SDS011;15976;47.938;7.758;2023-07-29T11:15:22;4.93;;;2.10;;
28844;SDS011;15976;47.938;7.758;2023-07-29T11:17:53;3.00;;;2.17;;
28844;SDS011;15976;47.938;7.758;2023-07-29T11:20:31;2.85;;;2.17;;
28844;SDS011;15976;47.938;7.758;2023-07-29T11:23:02;2.58;;;2.38;;
28844;SDS011;15976;47.938;7.758;2023-07-29T11:25:33;4.05;;;2.08;;
28844;SDS011;15976;47.938;7.758;2023-07-29T11:28:02;2.20;;;2.00;;
28844;SDS011;15976;47.938;7.758;2023-07-29T11:30:32;2.73;;;2.23;;
28844;SDS011;15976;47.938;7.758;2023-07-29T11:33:00;2.95;;;2.03;;
28844;SDS011;15976;47.938;7.758;2023-07-29T11:35:34;2.70;;;2.10;;
28844;SDS011;15976;47.938;7.758;2023-07-29T11:38:33;2.15;;;1.90;;
28844;SDS011;15976;47.938;7.758;2023-07-29T11:41:19;2.30;;;2.10;;
28844;SDS011;15976;47.938;7.758;2023-07-29T11:44:16;3.10;;;1.88;;
28844;SDS011;15976;47.938;7.758;2023-07-29T11:46:48;4.65;;;2.67;;
28844;SDS011;15976;47.938;7.758;2023-07-29T11:49:18;2.50;;;1.80;;
28844;SDS011;15976;47.938;7.758;2023-07-29T11:51:49;3.53;;;2.17;;
28844;SDS011;15976;47.938;7.758;2023-07-29T11:54:17;2.53;;;2.15;;
28844;SDS011;15976;47.938;7.758;2023-07-29T11:56:51;2.22;;;1.90;;
28844;SDS011;15976;47.938;7.758;2023-07-29T11:59:26;2.53;;;1.90;;
28844;SDS011;15976;47.938;7.758;2023-07-29T12:04:26;2.15;;;1.90;;
28844;SDS011;15976;47.938;7.758;2023-07-29T12:07:17;3.15;;;2.05;;
28844;SDS011;15976;47.938;7.758;2023-07-29T12:10:30;2.50;;;2.30;;
28844;SDS011;15976;47.938;7.758;2023-07-29T12:13:28;3.20;;;2.10;;
28844;SDS011;15976;47.938;7.758;2023-07-29T12:16:02;2.75;;;2.45;;
28844;SDS011;15976;47.938;7.758;2023-07-29T12:19:14;3.47;;;2.60;;
28844;SDS011;15976;47.938;7.758;2023-07-29T12:21:57;2.30;;;2.10;;
28844;SDS011;15976;47.938;7.758;2023-07-29T12:24:55;3.45;;;2.38;;
28844;SDS011;15976;47.938;7.758;2023-07-29T12:27:33;2.58;;;2.03;;
28844;SDS011;15976;47.938;7.758;2023-07-29T12:30:47;3.13;;;1.95;;
28844;SDS011;15976;47.938;7.758;2023-07-29T12:33:55;2.92;;;2.47;;
28844;SDS011;15976;47.938;7.758;2023-07-29T12:36:52;2.50;;;2.03;;
28844;SDS011;15976;47.938;7.758;2023-07-29T12:39:32;3.55;;;2.13;;
28844;SDS011;15976;47.938;7.758;2023-07-29T12:45:09;3.13;;;2.10;;
28844;SDS011;15976;47.938;7.758;2023-07-29T12:47:36;3.45;;;2.20;;
28844;SDS011;15976;47.938;7.758;2023-07-29T12:50:03;3.80;;;2.15;;
28844;SDS011;15976;47.938;7.758;2023-07-29T12:52:30;2.80;;;2.30;;
28844;SDS011;15976;47.938;7.758;2023-07-29T12:54:57;2.45;;;2.08;;
28844;SDS011;15976;47.938;7.758;2023-07-29T12:57:24;3.53;;;2.20;;
28844;SDS011;15976;47.938;7.758;2023-07-29T12:59:51;3.42;;;2.50;;
28844;SDS011;15976;47.938;7.758;2023-07-29T13:02:18;2.90;;;2.28;;
28844;SDS011;15976;47.938;7.758;2023-07-29T13:04:52;3.40;;;2.40;;
28844;SDS011;15976;47.938;7.758;2023-07-29T13:07:30;2.38;;;2.15;;
28844;SDS011;15976;47.938;7.758;2023-07-29T13:10:02;2.72;;;2.17;;
28844;SDS011;15976;47.938;7.758;2023-07-29T13:12:46;3.75;;;2.58;;
28844;SDS011;15976;47.938;7.758;2023-07-29T13:15:28;2.75;;;2.50;;
28844;SDS011;15976;47.938;7.758;2023-07-29T13:18:05;2.58;;;2.35;;
28844;SDS011;15976;47.938;7.758;2023-07-29T13:20:49;3.35;;;2.22;;
28844;SDS011;15976;47.938;7.758;2023-07-29T13:23:45;2.60;;;2.22;;
28844;SDS011;15976;47.938;7.758;2023-07-29T13:26:27;3.58;;;2.63;;
28844;SDS011;15976;47.938;7.758;2023-07-29T13:29:11;2.78;;;2.42;;
28844;SDS011;15976;47.938;7.758;2023-07-29T13:31:46;2.63;;;2.15;;
28844;SDS011;15976;47.938;7.758;2023-07-29T13:34:19;2.60;;;2.40;;
28844;SDS011;15976;47.938;7.758;2023-07-29T13:37:04;3.15;;;2.60;;
28844;SDS011;15976;47.938;7.758;2023-07-29T13:39:39;2.97;;;2.08;;
28844;SDS011;15976;47.938;7.758;2023-07-29T13:57:38;2.78;;;2.42;;
28844;SDS011;15976;47.938;7.758;2023-07-29T14:00:10;2.75;;;2.40;;
28844;SDS011;15976;47.938;7.758;2023-07-29T14:02:39;2.60;;;2.40;;
28844;SDS011;15976;47.938;7.758;2023-07-29T14:05:12;2.72;;;2.10;;
28844;SDS011;15976;47.938;7.758;2023-07-29T14:07:43;3.42;;;2.72;;
28844;SDS011;15976;47.938;7.758;2023-07-29T14:10:14;3.75;;;2.45;;
28844;SDS011;15976;47.938;7.758;2023-07-29T14:12:42;6.95;;;3.28;;
28844;SDS011;15976;47.938;7.758;2023-07-29T14:15:13;40.05;;;5.65;;
28844;SDS011;15976;47.938;7.758;2023-07-29T14:17:41;9.85;;;4.38;;
28844;SDS011;15976;47.938;7.758;2023-07-29T14:20:10;7.65;;;3.97;;
28844;SDS011;15976;47.938;7.758;2023-07-29T14:22:41;5.82;;;4.15;;
28844;SDS011;15976;47.938;7.758;2023-07-29T14:25:08;6.07;;;4.00;;
28844;SDS011;15976;47.938;7.758;2023-07-29T14:27:35;4.35;;;3.55;;
28844;SDS011;15976;47.938;7.758;2023-07-29T14:30:03;6.38;;;3.60;;
28844;SDS011;15976;47.938;7.758;2023-07-29T14:32:31;5.38;;;3.70;;
28844;SDS011;15976;47.938;7.758;2023-07-29T14:34:58;4.22;;;3.35;;
28844;SDS011;15976;47.938;7.758;2023-07-29T14:37:30;4.90;;;3.45;;
28844;SDS011;15976;47.938;7.758;2023-07-29T14:39:58;6.72;;;3.63;;
28844;SDS011;15976;47.938;7.758;2023-07-29T14:42:26;5.05;;;3.90;;
28844;SDS011;15976;47.938;7.758;2023-07-29T14:44:54;6.63;;;3.75;;
28844;SDS011;15976;47.938;7.758;2023-07-29T14:47:21;5.38;;;3.60;;
28844;SDS011;15976;47.938;7.758;2023-07-29T14:49:48;4.03;;;3.45;;
28844;SDS011;15976;47.938;7.758;2023-07-29T14:52:15;4.53;;;3.35;;
28844;SDS011;15976;47.938;7.758;2023-07-29T14:54:42;4.28;;;3.55;;
28844;SDS011;15976;47.938;7.758;2023-07-29T14:57:09;6.63;;;4.43;;
28844;SDS011;15976;47.938;7.758;2023-07-29T14:59:36;4.82;;;3.80;;
28844;SDS011;15976;47.938;7.758;2023-07-29T15:02:03;5.75;;;3.80;;
28844;SDS011;15976;47.938;7.758;2023-07-29T15:04:32;4.68;;;3.70;;
28844;SDS011;15976;47.938;7.758;2023-07-29T15:07:00;5.20;;;4.05;;
28844;SDS011;15976;47.938;7.758;2023-07-29T15:09:28;4.40;;;3.67;;
28844;SDS011;15976;47.938;7.758;2023-07-29T15:11:56;4.88;;;3.55;;
28844;SDS011;15976;47.938;7.758;2023-07-29T15:14:24;5.68;;;3.40;;
28844;SDS011;15976;47.938;7.758;2023-07-29T15:16:52;4.88;;;3.15;;
28844;SDS011;15976;47.938;7.758;2023-07-29T15:19:20;3.42;;;3.13;;
28844;SDS011;15976;47.938;7.758;2023-07-29T15:21:48;3.55;;;3.25;;
28844;SDS011;15976;47.938;7.758;2023-07-29T15:24:15;3.53;;;3.22;;
28844;SDS011;15976;47.938;7.758;2023-07-29T15:26:42;3.83;;;3.33;;
28844;SDS011;15976;47.938;7.758;2023-07-29T15:29:09;3.60;;;3.28;;
28844;SDS011;15976;47.938;7.758;2023-07-29T15:31:36;4.43;;;3.40;;
28844;SDS011;15976;47.938;7.758;2023-07-29T15:34:03;5.75;;;3.55;;
28844;SDS011;15976;47.938;7.758;2023-07-29T15:36:30;4.55;;;3.50;;
28844;SDS011;15976;47.938;7.758;2023-07-29T15:38:57;5.40;;;3.42;;
28844;SDS011;15976;47.938;7.758;2023-07-29T15:41:24;5.10;;;3.70;;
28844;SDS011;15976;47.938;7.758;2023-07-29T15:43:50;4.75;;;3.80;;
28844;SDS011;15976;47.938;7.758;2023-07-29T15:46:17;6.22;;;3.78;;
28844;SDS011;15976;47.938;7.758;2023-07-29T15:48:44;4.72;;;4.05;;
28844;SDS011;15976;47.938;7.758;2023-07-29T15:51:11;5.68;;;3.63;;
28844;SDS011;15976;47.938;7.758;2023-07-29T15:53:38;4.57;;;3.85;;
28844;SDS011;15976;47.938;7.758;2023-07-29T15:56:05;4.05;;;3.60;;
28844;SDS011;15976;47.938;7.758;2023-07-29T15:58:32;6.07;;;3.75;;
28844;SDS011;15976;47.938;7.758;2023-07-29T16:00:59;4.68;;;4.00;;
28844;SDS011;15976;47.938;7.758;2023-07-29T16:03:26;5.10;;;3.97;;
28844;SDS011;15976;47.938;7.758;2023-07-29T16:05:55;4.50;;;4.10;;
28844;SDS011;15976;47.938;7.758;2023-07-29T16:08:22;4.10;;;3.65;;
28844;SDS011;15976;47.938;7.758;2023-07-29T16:10:50;4.43;;;3.90;;
28844;SDS011;15976;47.938;7.758;2023-07-29T16:13:17;4.60;;;3.85;;
28844;SDS011;15976;47.938;7.758;2023-07-29T16:15:46;4.57;;;3.97;;